Kaikoura, New Zealand
Current Conditions -  °F | °C
As of 6:00 AM on Friday 19 Dec 2014 (Local Time) from NZWN Reporting Station
Broken Clouds Broken Clouds  
Wind Chill: 59°   Ceiling: 1000
Heat Index: 59°   Visibility: 6mi
Dew Point: 57°   Wind: 21mph
Humidity: 94%   Direction: 350°N
Pressure: 29.94"   Gusts: NA
Location:  42.4°S, 173.68°E
Report Text: NZWN 181800Z AUTO 35018KT 9999 BKN010/// 15/14 Q1014 TEMPO 6000DZ
Loading
Personal Weather Stations






























Interactive Weather Map New forecast layout! Learn more

10-Day Weather Forecast

Advertisements
Track Severe Weather on mobile